Time;durP1;ratioP1;P1;durP2;ratioP2;P2;SDS_P1;SDS_P2;PMS_P1;PMS_P2;Temp;Humidity;BMP_temperature;BMP_pressure;BME280_temperature;BME280_humidity;BME280_pressure;Samples;Min_cycle;Max_cycle;Signal;HPM_P1;HPM_P2
2022/11/19 00:00:37;;;;;;;;;10.00;8.25;;;;;8.03;72.91;100720.41;5073205;28;66661;-81
2022/11/19 00:03:02;;;;;;;;;16.50;7.75;;;;;8.02;73.24;100713.50;5060117;28;46352;-80
2022/11/19 00:05:27;;;;;;;;;13.25;7.50;;;;;7.99;73.21;100710.13;5078293;27;59206;-80
2022/11/19 00:07:53;;;;;;;;;6.25;6.25;;;;;7.98;73.47;100708.41;5077231;28;68715;-80
2022/11/19 00:10:18;;;;;;;;;6.00;5.25;;;;;7.94;73.32;100711.06;5077690;28;61780;-80
2022/11/19 00:12:55;;;;;;;;;5.00;5.00;;;;;7.95;73.50;100705.00;5077785;28;62517;-80
2022/11/19 00:15:22;;;;;;;;;7.50;5.75;;;;;7.97;73.59;100711.88;5078400;28;45922;-80
2022/11/19 00:17:47;;;;;;;;;7.50;6.50;;;;;7.98;73.35;100711.84;5060348;28;45465;-80
2022/11/19 00:20:14;;;;;;;;;12.50;5.25;;;;;8.04;73.55;100708.28;5060273;28;45410;-80
2022/11/19 00:22:42;;;;;;;;;5.25;5.25;;;;;8.09;73.27;100707.31;5077713;28;46770;-81
2022/11/19 00:25:08;;;;;;;;;8.00;8.00;;;;;8.10;72.85;100709.03;5043961;28;45468;-80
2022/11/19 00:27:33;;;;;;;;;6.00;4.50;;;;;8.06;72.98;100703.94;5060106;28;45360;-81
2022/11/19 00:29:58;;;;;;;;;6.00;5.00;;;;;8.06;73.38;100714.28;5077895;27;52738;-81
2022/11/19 00:32:24;;;;;;;;;9.00;5.25;;;;;8.07;73.04;100709.09;5077234;28;71058;-80
2022/11/19 00:34:49;;;;;;;;;5.00;5.00;;;;;8.05;72.99;100717.78;5077197;28;45321;-80
2022/11/19 00:37:14;;;;;;;;;8.00;6.00;;;;;8.00;72.88;100714.41;5077601;27;45413;-80
2022/11/19 00:39:40;;;;;;;;;9.25;5.25;;;;;7.97;73.01;100720.53;5059459;28;45413;-81
2022/11/19 00:42:05;;;;;;;;;10.50;7.00;;;;;7.94;73.16;100723.16;5058663;28;45363;-81
2022/11/19 00:44:30;;;;;;;;;8.25;8.00;;;;;7.91;73.28;100726.69;5076965;28;71257;-80
2022/11/19 00:46:56;;;;;;;;;9.25;6.00;;;;;7.88;73.47;100721.53;5078000;27;45438;-80
2022/11/19 00:49:21;;;;;;;;;7.50;5.00;;;;;7.87;73.45;100718.97;5077016;28;64100;-80
2022/11/19 00:51:46;;;;;;;;;8.75;7.00;;;;;7.87;73.35;100722.41;5076713;27;57941;-80
2022/11/19 00:54:12;;;;;;;;;4.50;4.50;;;;;7.86;73.61;100717.28;5041871;28;66933;-80
2022/11/19 00:56:37;;;;;;;;;5.00;5.00;;;;;7.83;73.41;100707.81;5077034;28;66036;-80
2022/11/19 00:59:03;;;;;;;;;6.75;4.75;;;;;7.83;73.49;100715.56;5058738;28;64715;-80
2022/11/19 01:01:28;;;;;;;;;7.00;5.75;;;;;7.82;73.36;100713.00;5077520;27;46395;-80
2022/11/19 01:03:54;;;;;;;;;5.00;5.00;;;;;7.77;73.50;100707.91;5076990;27;65889;-80
2022/11/19 01:06:22;;;;;;;;;8.50;6.00;;;;;7.73;73.80;100707.13;5077297;28;45350;-80
2022/11/19 01:08:49;;;;;;;;;6.00;4.00;;;;;7.70;73.73;100712.34;5059458;28;45466;-81
2022/11/19 01:11:19;;;;;;;;;6.50;5.25;;;;;7.70;73.80;100709.75;5077447;27;45289;-80
2022/11/19 01:13:45;;;;;;;;;6.00;5.00;;;;;7.67;74.14;100717.59;5059324;28;45371;-80
2022/11/19 01:16:22;;;;;;;;;5.00;4.00;;;;;7.62;74.20;100716.81;5077773;28;45470;-80
2022/11/19 01:18:49;;;;;;;;;6.50;4.00;;;;;7.61;74.18;100724.59;5059587;28;45445;-80
2022/11/19 01:21:16;;;;;;;;;9.00;4.75;;;;;7.59;74.59;100735.00;5076894;28;46069;-80
2022/11/19 01:23:42;;;;;;;;;5.00;4.00;;;;;7.56;74.27;100748.00;5077194;28;45379;-80
2022/11/19 01:26:08;;;;;;;;;6.50;5.25;;;;;7.52;74.62;100742.03;5077642;28;45466;-80
2022/11/19 01:28:33;;;;;;;;;5.50;4.50;;;;;7.50;74.77;100748.97;5059224;28;45393;-80
2022/11/19 01:30:59;;;;;;;;;6.50;5.50;;;;;7.50;74.59;100742.91;5058945;28;48172;-80
2022/11/19 01:33:24;;;;;;;;;8.00;4.50;;;;;7.47;74.67;100741.25;5077030;28;45463;-80
2022/11/19 01:35:58;;;;;;;;;10.50;4.25;;;;;7.47;74.79;100751.59;5077246;28;45561;-80
2022/11/19 01:38:23;;;;;;;;;5.25;5.00;;;;;7.47;74.66;100748.16;5058640;28;45359;-80
2022/11/19 01:40:49;;;;;;;;;5.00;5.00;;;;;7.45;75.40;100750.78;5057184;28;46150;-80
2022/11/19 01:43:14;;;;;;;;;4.25;4.25;;;;;7.41;74.94;100745.66;5076944;28;45343;-80
2022/11/19 01:45:48;;;;;;;;;5.75;5.75;;;;;7.41;74.85;100748.25;5058992;27;45403;-80
2022/11/19 01:48:26;;;;;;;;;5.50;5.00;;;;;7.40;75.28;100747.38;5076578;27;45399;-80
2022/11/19 01:50:57;;;;;;;;;5.00;5.00;;;;;7.44;75.04;100750.78;5059171;28;46451;-80
2022/11/19 01:53:26;;;;;;;;;6.00;4.75;;;;;7.42;74.81;100752.56;5058722;28;45856;-80
2022/11/19 01:55:52;;;;;;;;;5.25;3.50;;;;;7.40;75.21;100756.91;5058818;28;45394;-80
2022/11/19 01:58:20;;;;;;;;;8.25;5.00;;;;;7.39;75.08;100753.44;5075590;28;69194;-80
2022/11/19 02:00:46;;;;;;;;;6.50;3.00;;;;;7.39;75.16;100748.25;5058690;28;46377;-80
2022/11/19 02:03:11;;;;;;;;;2.75;2.00;;;;;7.40;74.99;100749.97;5076138;28;45467;-80
2022/11/19 02:05:39;;;;;;;;;6.00;4.00;;;;;7.43;74.97;100751.66;5076905;27;45351;-80
2022/11/19 02:08:06;;;;;;;;;6.00;5.00;;;;;7.42;75.36;100749.97;5058752;28;45419;-80
2022/11/19 02:10:58;;;;;;;;;6.00;5.50;;;;;7.41;74.93;100751.72;5076584;27;45467;-80
2022/11/19 02:13:39;;;;;;;;;4.00;4.00;;;;;7.40;75.23;100752.56;5076703;28;45505;-80
2022/11/19 02:16:27;;;;;;;;;6.00;4.00;;;;;7.43;75.33;100759.44;5058427;28;45409;-80
2022/11/19 02:19:11;;;;;;;;;6.50;6.00;;;;;7.46;75.15;100760.22;5057951;28;45583;-80
2022/11/19 02:21:59;;;;;;;;;5.75;4.00;;;;;7.52;75.19;100759.28;5076376;28;46432;-80
2022/11/19 02:24:42;;;;;;;;;4.00;4.00;;;;;7.55;75.09;100749.72;5041207;28;46119;-80
2022/11/19 02:27:39;;;;;;;;;5.00;4.75;;;;;7.61;74.80;100755.69;5058260;27;45381;-80
2022/11/19 02:30:08;;;;;;;;;5.25;5.00;;;;;7.59;74.59;100752.28;5076565;28;45492;-80
2022/11/19 02:32:49;;;;;;;;;8.00;5.75;;;;;7.57;74.91;100762.66;5057646;28;45426;-80
2022/11/19 02:35:23;;;;;;;;;5.00;5.00;;;;;7.53;75.12;100761.84;5058185;28;45411;-80
2022/11/19 02:38:04;;;;;;;;;5.25;4.50;;;;;7.51;75.16;100757.59;5076086;28;45380;-80
2022/11/19 02:40:40;;;;;;;;;6.00;5.00;;;;;7.49;75.14;100751.56;5073619;28;45376;-80
2022/11/19 02:43:25;;;;;;;;;5.00;4.25;;;;;7.49;75.31;100754.16;5057923;28;46062;-80
2022/11/19 02:46:02;;;;;;;;;4.75;4.00;;;;;7.51;75.33;100749.81;5061488;27;45314;-80
2022/11/19 02:48:33;;;;;;;;;3.50;3.50;;;;;7.53;75.39;100751.50;5057966;28;45361;-80
2022/11/19 02:51:00;;;;;;;;;4.75;4.00;;;;;7.54;75.06;100754.94;5075868;28;45480;-80
2022/11/19 02:53:26;;;;;;;;;4.50;4.50;;;;;7.54;75.25;100749.75;5057906;28;45703;-80
2022/11/19 03:04:30;;;;;;;;;5.00;4.00;;;;;7.55;75.64;100744.53;5060544;28;45906;-80
2022/11/19 03:07:10;;;;;;;;;4.00;4.00;;;;;7.55;75.70;100757.50;5059019;28;45775;-80
2022/11/19 03:09:41;;;;;;;;;5.25;5.00;;;;;7.51;75.60;100748.06;5057669;28;45378;-80
2022/11/19 03:12:13;;;;;;;;;11.75;4.00;;;;;7.54;75.57;100754.94;5075889;28;45346;-80
2022/11/19 03:17:39;;;;;;;;;8.50;4.25;;;;;7.63;75.58;100757.38;5060544;28;45601;-80
2022/11/19 03:20:14;;;;;;;;;8.50;5.00;;;;;7.64;75.52;100760.84;5057682;28;45427;-81
2022/11/19 03:22:57;;;;;;;;;4.00;4.00;;;;;7.65;75.77;100760.81;5057938;28;45442;-80
2022/11/19 03:25:49;;;;;;;;;6.00;3.50;;;;;7.63;75.63;100769.47;5057498;28;46849;-79
2022/11/19 03:28:20;;;;;;;;;5.00;3.50;;;;;7.63;75.72;100769.47;5057483;28;45854;-80
2022/11/19 03:30:47;;;;;;;;;8.50;5.00;;;;;7.63;75.64;100766.88;5057437;28;45447;-80
2022/11/19 03:33:17;;;;;;;;;4.00;2.50;;;;;7.66;75.66;100766.84;5074608;27;70138;-80
2022/11/19 03:35:46;;;;;;;;;5.75;4.00;;;;;7.74;75.79;100765.84;5057173;28;45690;-80
2022/11/19 03:38:16;;;;;;;;;7.50;4.75;;;;;7.82;75.39;100770.91;5036666;28;46142;-80
2022/11/19 03:40:42;;;;;;;;;7.25;4.00;;;;;7.83;75.41;100771.75;5043114;28;45298;-80
2022/11/19 03:43:10;;;;;;;;;1.50;1.50;;;;;7.83;75.58;100775.19;5036615;28;56632;-80
2022/11/19 03:45:42;;;;;;;;;7.50;4.00;;;;;7.82;75.19;100770.91;5054855;28;45779;-80
2022/11/19 03:48:08;;;;;;;;;1.75;1.75;;;;;7.80;75.21;100769.19;5037247;28;45797;-80
2022/11/19 03:51:08;;;;;;;;;5.00;5.00;;;;;7.77;75.20;100766.69;5037144;28;45456;-80
2022/11/19 03:53:34;;;;;;;;;4.75;4.00;;;;;7.75;75.38;100769.28;5037091;28;45359;-80
2022/11/19 03:56:01;;;;;;;;;4.00;3.00;;;;;7.74;75.42;100768.44;5054090;28;71244;-80
2022/11/19 03:58:28;;;;;;;;;4.75;4.50;;;;;7.74;75.26;100772.75;5036361;28;45864;-79
2022/11/19 04:00:53;;;;;;;;;4.25;4.00;;;;;7.75;75.51;100777.06;5037176;28;45454;-80
2022/11/19 04:03:19;;;;;;;;;4.75;4.50;;;;;7.77;75.37;100777.03;5054843;28;45483;-80
2022/11/19 04:05:44;;;;;;;;;4.00;2.00;;;;;7.78;75.43;100776.16;5054282;28;72839;-80
2022/11/19 04:08:10;;;;;;;;;8.00;5.50;;;;;7.82;75.77;100773.50;5054904;28;45407;-80
2022/11/19 04:10:35;;;;;;;;;4.75;2.00;;;;;7.87;75.25;100782.00;5037688;28;53395;-80
2022/11/19 04:13:00;;;;;;;;;7.00;4.25;;;;;7.87;75.42;100784.59;5056902;28;63065;-80
2022/11/19 04:15:25;;;;;;;;;4.75;4.00;;;;;7.90;75.69;100781.97;5039765;28;49502;-80
2022/11/19 04:17:51;;;;;;;;;4.00;4.00;;;;;7.94;75.43;100780.19;5057621;28;58362;-80
2022/11/19 04:20:16;;;;;;;;;5.50;4.00;;;;;7.99;75.48;100786.16;5057406;28;60215;-80
2022/11/19 04:22:42;;;;;;;;;5.00;5.00;;;;;8.02;75.69;100782.63;5057636;28;51490;-80
2022/11/19 04:25:07;;;;;;;;;5.00;3.50;;;;;8.00;75.44;100787.84;5057751;28;46409;-80
2022/11/19 04:27:33;;;;;;;;;1.25;1.00;;;;;7.99;75.51;100788.75;5057533;28;45446;-80
2022/11/19 04:29:58;;;;;;;;;4.25;3.00;;;;;8.01;75.31;100791.31;5057896;28;45301;-80
2022/11/19 04:32:23;;;;;;;;;4.75;3.50;;;;;8.02;75.50;100791.25;5057564;28;46850;-80
2022/11/19 04:34:49;;;;;;;;;3.00;1.50;;;;;8.04;75.71;100793.84;5058023;28;45558;-81
2022/11/19 04:37:14;;;;;;;;;2.00;2.00;;;;;8.08;75.44;100795.53;5056996;28;69119;-81
2022/11/19 04:39:39;;;;;;;;;4.75;2.00;;;;;8.08;75.66;100798.97;5053933;28;66660;-81
2022/11/19 04:42:05;;;;;;;;;4.00;2.00;;;;;8.08;75.53;100798.13;5034937;28;66741;-81
2022/11/19 04:44:31;;;;;;;;;4.75;2.50;;;;;8.07;75.26;100807.59;5037024;28;58987;-81
2022/11/19 04:46:57;;;;;;;;;4.75;4.25;;;;;8.09;75.28;100808.44;5037692;28;45648;-81
2022/11/19 04:49:22;;;;;;;;;6.00;3.50;;;;;8.10;75.39;100802.38;5037312;28;45217;-81
2022/11/19 04:51:48;;;;;;;;;1.00;1.00;;;;;8.10;75.49;100804.13;5036637;28;65506;-81
2022/11/19 04:54:13;;;;;;;;;6.50;4.00;;;;;8.07;75.28;100807.59;5018499;28;68687;-81
2022/11/19 04:56:38;;;;;;;;;4.50;2.00;;;;;8.09;75.56;100807.59;5036911;28;52374;-81
2022/11/19 04:59:04;;;;;;;;;3.50;3.50;;;;;8.12;75.70;100821.34;5037148;28;45344;-81
2022/11/19 05:01:30;;;;;;;;;4.50;4.00;;;;;8.11;75.58;100819.63;5037619;28;45352;-81
2022/11/19 05:03:56;;;;;;;;;4.00;3.00;;;;;8.12;75.74;100826.53;5037067;28;45472;-80
2022/11/19 05:06:21;;;;;;;;;4.25;2.00;;;;;8.13;75.58;100828.25;5037029;28;45396;-81
2022/11/19 05:08:46;;;;;;;;;8.25;4.25;;;;;8.13;75.42;100829.97;5037623;28;61763;-81
2022/11/19 05:11:12;;;;;;;;;4.25;4.00;;;;;8.08;75.52;100830.06;5036049;28;68337;-81
2022/11/19 05:13:37;;;;;;;;;4.00;4.00;;;;;8.02;75.78;100831.91;5036267;28;71471;-81
2022/11/19 05:16:03;;;;;;;;;2.00;2.00;;;;;7.93;75.59;100836.38;5037160;28;45564;-81
2022/11/19 05:18:28;;;;;;;;;6.50;3.50;;;;;7.89;76.06;100829.53;5036995;28;45394;-81
2022/11/19 05:20:53;;;;;;;;;4.75;4.00;;;;;7.83;75.80;100831.34;5036472;28;47943;-81
2022/11/19 05:23:19;;;;;;;;;4.75;3.50;;;;;7.79;75.93;100825.34;5035125;28;64895;-80
2022/11/19 05:25:45;;;;;;;;;7.25;4.00;;;;;7.75;76.17;100824.56;5036471;28;45866;-81
2022/11/19 05:28:10;;;;;;;;;4.00;4.00;;;;;7.73;76.07;100818.53;5037109;28;45332;-81
2022/11/19 05:30:36;;;;;;;;;5.25;3.50;;;;;7.70;76.23;100825.50;5036303;28;61508;-81
2022/11/19 05:33:01;;;;;;;;;7.50;4.00;;;;;7.67;76.34;100823.81;5036708;28;45424;-81
2022/11/19 05:35:26;;;;;;;;;3.50;3.00;;;;;7.66;76.17;100813.47;5036434;28;55895;-81
2022/11/19 05:37:52;;;;;;;;;4.00;4.00;;;;;7.64;76.15;100823.88;5039996;28;51498;-81
2022/11/19 05:40:18;;;;;;;;;4.50;4.50;;;;;7.66;76.05;100818.66;5066684;27;66077;-81
2022/11/19 05:42:44;;;;;;;;;6.00;2.00;;;;;7.65;76.10;100819.53;5058723;28;45569;-81
2022/11/19 05:45:10;;;;;;;;;5.00;4.25;;;;;7.65;76.29;100807.44;5059063;28;45359;-80
2022/11/19 05:47:35;;;;;;;;;5.25;3.50;;;;;7.64;76.26;100813.50;5059144;28;45287;-81
2022/11/19 05:50:01;;;;;;;;;5.00;4.00;;;;;7.65;76.42;100812.63;5077139;27;45479;-81
2022/11/19 05:52:26;;;;;;;;;4.00;1.00;;;;;7.65;76.19;100814.34;5076859;28;45309;-81
2022/11/19 05:54:52;;;;;;;;;7.75;5.75;;;;;7.64;76.21;100818.69;5057976;28;63026;-81
2022/11/19 05:57:17;;;;;;;;;5.00;4.00;;;;;7.64;76.20;100816.09;5076185;27;59647;-81
2022/11/19 05:59:42;;;;;;;;;4.75;4.00;;;;;7.62;76.15;100822.19;5075783;28;68282;-81
2022/11/19 06:02:07;;;;;;;;;5.00;4.00;;;;;7.60;76.25;100819.63;5058637;28;45403;-81
2022/11/19 06:04:33;;;;;;;;;5.75;4.00;;;;;7.60;76.45;100811.84;5075746;28;66300;-81
2022/11/19 06:06:58;;;;;;;;;9.50;5.75;;;;;7.61;76.76;100813.53;5074763;28;62117;-81
2022/11/19 06:09:23;;;;;;;;;4.00;3.50;;;;;7.62;76.34;100806.66;5075846;28;58226;-81
2022/11/19 06:11:49;;;;;;;;;6.25;4.50;;;;;7.60;76.81;100809.25;5075560;27;71502;-81
2022/11/19 06:14:22;;;;;;;;;4.75;4.75;;;;;7.64;76.90;100810.06;5076214;28;45391;-81
2022/11/19 06:16:48;;;;;;;;;8.25;5.00;;;;;7.66;76.54;100814.34;5059145;28;45471;-81
2022/11/19 06:19:14;;;;;;;;;4.75;4.75;;;;;7.68;76.71;100816.91;5076573;28;45550;-81
2022/11/19 06:21:39;;;;;;;;;4.00;4.00;;;;;7.72;76.69;100821.16;5076289;28;45419;-81
2022/11/19 06:24:05;;;;;;;;;2.50;2.00;;;;;7.79;76.73;100827.09;5075119;28;73184;-81
2022/11/19 06:26:31;;;;;;;;;1.50;0.50;;;;;7.86;76.93;100829.56;5076669;28;45467;-81
2022/11/19 06:28:56;;;;;;;;;5.00;5.00;;;;;7.88;76.72;100835.56;5075910;28;66562;-81
2022/11/19 06:31:22;;;;;;;;;5.00;2.50;;;;;7.94;76.79;100840.66;5076043;28;45343;-81
2022/11/19 06:33:47;;;;;;;;;4.25;4.00;;;;;7.99;76.93;100842.34;5075425;28;45794;-81
2022/11/19 06:36:13;;;;;;;;;7.50;4.00;;;;;8.00;76.65;100851.81;5075548;28;64041;-81
2022/11/19 06:38:39;;;;;;;;;3.75;2.00;;;;;8.00;76.77;100855.25;5075707;28;45432;-81
2022/11/19 06:41:04;;;;;;;;;3.50;1.25;;;;;8.00;77.39;100857.84;5074411;28;45657;-81
2022/11/19 06:43:29;;;;;;;;;5.00;5.00;;;;;8.00;77.30;100863.03;5076232;28;45277;-81
2022/11/19 06:45:55;;;;;;;;;2.50;2.50;;;;;7.98;77.38;100863.94;5075624;28;58802;-81
2022/11/19 06:48:20;;;;;;;;;6.25;5.00;;;;;7.98;77.17;100863.94;5074929;28;65759;-80
2022/11/19 06:50:46;;;;;;;;;5.75;4.00;;;;;7.98;77.35;100864.78;5075885;28;46248;-81
2022/11/19 06:53:11;;;;;;;;;7.00;4.75;;;;;8.00;77.25;100869.94;5075771;28;45381;-81
2022/11/19 06:55:37;;;;;;;;;8.50;4.75;;;;;8.01;77.59;100867.34;5058177;28;45325;-81
2022/11/19 06:58:03;;;;;;;;;7.75;5.00;;;;;7.98;77.60;100867.38;5076258;28;45354;-81
2022/11/19 07:00:28;;;;;;;;;4.50;4.00;;;;;7.98;77.34;100869.97;5075887;28;45414;-81
2022/11/19 07:02:53;;;;;;;;;13.00;5.00;;;;;7.92;77.60;100873.53;5075161;27;65245;-81
2022/11/19 07:05:19;;;;;;;;;6.00;4.75;;;;;7.91;77.56;100881.31;5056730;28;63428;-81
2022/11/19 07:07:44;;;;;;;;;10.50;6.00;;;;;7.88;77.60;100883.97;5074861;28;62722;-81
2022/11/19 07:10:09;;;;;;;;;8.50;5.50;;;;;7.88;77.86;100879.63;5075702;28;48523;-81
2022/11/19 07:12:35;;;;;;;;;8.25;8.00;;;;;7.86;77.70;100889.19;5056772;28;67324;-81
2022/11/19 07:15:00;;;;;;;;;8.00;5.75;;;;;7.84;78.13;100892.69;5075177;28;56897;-81
2022/11/19 07:17:25;;;;;;;;;6.00;4.50;;;;;7.86;77.88;100891.78;5075366;27;55974;-81
2022/11/19 07:19:51;;;;;;;;;6.50;5.75;;;;;7.86;77.95;100890.91;5056949;28;62010;-81
2022/11/19 07:22:16;;;;;;;;;12.50;6.00;;;;;7.87;78.27;100898.66;5074559;28;58533;-81
2022/11/19 07:24:41;;;;;;;;;9.75;5.25;;;;;7.92;77.73;100911.56;5075422;28;51823;-81
2022/11/19 07:27:07;;;;;;;;;12.00;6.50;;;;;7.94;78.32;100907.19;5074848;27;62577;-81
2022/11/19 07:29:32;;;;;;;;;9.25;6.00;;;;;7.94;78.49;100907.19;5075488;28;45299;-81
2022/11/19 07:31:57;;;;;;;;;20.75;9.75;;;;;7.95;78.50;100903.75;5075231;28;49084;-81
2022/11/19 07:34:23;;;;;;;;;8.25;6.00;;;;;7.94;77.99;100910.63;5056840;28;60434;-81
2022/11/19 07:36:48;;;;;;;;;10.00;6.50;;;;;7.93;78.17;100915.84;5075247;28;45222;-81
2022/11/19 07:39:14;;;;;;;;;10.75;8.00;;;;;7.91;78.69;100921.06;5044376;28;46440;-81
2022/11/19 07:44:23;;;;;;;;;9.50;7.50;;;;;7.97;78.27;100921.84;5076341;28;45358;-81
2022/11/19 07:46:49;;;;;;;;;10.25;8.25;;;;;8.00;78.37;100921.78;5078191;27;64283;-81
2022/11/19 07:49:14;;;;;;;;;9.00;6.00;;;;;8.02;78.01;100925.22;5059616;28;73891;-81
2022/11/19 07:51:40;;;;;;;;;12.25;7.00;;;;;8.05;77.95;100935.56;5078401;28;45406;-81
2022/11/19 07:54:05;;;;;;;;;8.00;5.75;;;;;8.08;78.22;100936.38;5079022;27;45572;-81
2022/11/19 07:56:31;;;;;;;;;11.75;7.00;;;;;8.10;78.13;100947.56;5078376;28;45509;-81
2022/11/19 07:58:58;;;;;;;;;9.50;5.75;;;;;8.12;77.87;100951.00;5077770;28;71337;-81
2022/11/19 08:01:24;;;;;;;;;10.75;5.75;;;;;8.14;77.70;100951.81;5078825;28;45403;-81
2022/11/19 08:03:51;;;;;;;;;11.00;8.00;;;;;8.19;77.86;100958.66;5078577;28;45353;-81
2022/11/19 08:06:17;;;;;;;;;8.25;8.00;;;;;8.23;77.98;100956.00;5078230;27;45544;-81
2022/11/19 08:08:43;;;;;;;;;5.50;5.50;;;;;8.29;77.93;100960.25;5078762;28;45518;-81
2022/11/19 08:11:10;;;;;;;;;9.50;8.50;;;;;8.32;77.71;100965.38;5060519;28;45721;-81
2022/11/19 08:13:36;;;;;;;;;13.00;9.25;;;;;8.34;77.84;100974.00;5060274;28;45320;-81
2022/11/19 08:16:03;;;;;;;;;11.00;8.00;;;;;8.38;77.90;100973.06;5060439;28;45481;-81
2022/11/19 08:18:28;;;;;;;;;13.75;9.00;;;;;8.43;77.81;100973.91;5060216;27;45616;-80
2022/11/19 08:20:54;;;;;;;;;8.00;5.00;;;;;8.47;77.72;100980.72;5077333;28;59542;-81
2022/11/19 08:23:19;;;;;;;;;9.50;6.00;;;;;8.51;77.35;100978.94;5059541;28;63349;-81
2022/11/19 08:25:45;;;;;;;;;5.25;5.00;;;;;8.56;77.63;100981.44;5078323;28;45415;-81
2022/11/19 08:28:10;;;;;;;;;13.50;9.50;;;;;8.61;77.51;100990.88;5077425;27;71247;-80
2022/11/19 08:30:38;;;;;;;;;10.00;9.75;;;;;8.69;77.34;100990.75;5077917;28;45347;-81
2022/11/19 08:33:04;;;;;;;;;11.50;9.50;;;;;8.76;77.42;100991.50;5060595;28;45543;-81
2022/11/19 08:35:29;;;;;;;;;12.50;10.00;;;;;8.84;77.11;100994.81;5059764;28;45323;-81
2022/11/19 08:37:54;;;;;;;;;16.50;10.00;;;;;8.87;76.95;100994.75;5076659;28;75196;-81
2022/11/19 08:40:20;;;;;;;;;9.00;5.00;;;;;8.93;77.04;100999.00;5075596;28;66478;-81
2022/11/19 08:43:00;;;;;;;;;13.75;9.00;;;;;8.94;76.25;101004.16;5077274;28;67844;-81
2022/11/19 08:45:31;;;;;;;;;9.50;9.50;;;;;8.98;76.68;101005.81;5078360;27;45373;-81
2022/11/19 08:47:57;;;;;;;;;15.25;11.25;;;;;9.02;76.68;101004.88;5059072;28;46320;-81
2022/11/19 08:50:23;;;;;;;;;11.00;7.50;;;;;9.06;76.25;101009.13;5059134;28;45939;-81
2022/11/19 08:53:00;;;;;;;;;9.00;9.00;;;;;9.09;76.37;101003.88;5076743;27;45328;-80
2022/11/19 08:55:27;;;;;;;;;12.00;7.50;;;;;9.17;76.75;101008.06;5077938;27;45511;-81
2022/11/19 08:57:59;;;;;;;;;11.00;9.25;;;;;9.22;76.59;101011.44;5077084;27;45315;-81
2022/11/19 09:00:24;;;;;;;;;10.75;9.00;;;;;9.27;76.25;101007.03;5059527;27;45427;-81
2022/11/19 09:02:49;;;;;;;;;9.75;9.50;;;;;9.34;76.42;101018.97;5076868;27;45496;-81
2022/11/19 09:05:15;;;;;;;;;10.50;7.25;;;;;9.38;76.21;101012.00;5056976;28;45532;-81
2022/11/19 09:07:40;;;;;;;;;11.25;7.50;;;;;9.41;75.94;101011.94;5056497;28;66943;-81
2022/11/19 09:10:06;;;;;;;;;10.25;9.00;;;;;9.38;75.45;101015.47;5057275;28;45467;-81
2022/11/19 09:12:32;;;;;;;;;12.50;9.25;;;;;9.39;75.78;101018.91;5057206;28;45464;-81
2022/11/19 09:14:57;;;;;;;;;12.50;8.50;;;;;9.37;75.43;101016.34;5056282;28;63280;-81
2022/11/19 09:17:22;;;;;;;;;10.50;10.00;;;;;9.37;75.47;101021.53;5057078;28;45356;-81
2022/11/19 09:19:48;;;;;;;;;18.75;10.75;;;;;9.41;75.51;101023.19;5055325;28;71157;-81
2022/11/19 09:22:14;;;;;;;;;9.75;9.75;;;;;9.43;75.42;101024.00;5057048;28;45325;-81
2022/11/19 09:24:39;;;;;;;;;9.00;8.50;;;;;9.46;75.17;101021.34;5056379;28;66330;-81
2022/11/19 09:27:04;;;;;;;;;12.00;9.00;;;;;9.49;74.88;101016.09;5055862;28;71513;-81
2022/11/19 09:29:30;;;;;;;;;9.00;6.25;;;;;9.51;74.74;101021.28;5056201;28;65262;-81
2022/11/19 09:31:55;;;;;;;;;9.25;7.25;;;;;9.53;74.63;101022.09;5055764;28;62827;-81
2022/11/19 09:34:20;;;;;;;;;5.25;5.00;;;;;9.54;74.70;101029.00;5056063;28;60167;-81
2022/11/19 09:36:46;;;;;;;;;10.75;6.50;;;;;9.54;74.28;101039.38;5055771;28;69811;-81
2022/11/19 09:39:11;;;;;;;;;5.25;5.25;;;;;9.57;74.42;101039.34;5075312;28;69493;-81
2022/11/19 09:41:45;;;;;;;;;9.25;5.00;;;;;9.60;74.61;101038.41;5074813;27;60705;-81
2022/11/19 09:44:38;;;;;;;;;11.50;5.50;;;;;9.61;74.71;101040.13;5077330;27;45303;-81
2022/11/19 09:47:20;;;;;;;;;9.75;6.25;;;;;9.66;74.56;101036.56;5076391;28;45312;-81
2022/11/19 09:50:02;;;;;;;;;3.75;3.50;;;;;9.69;74.23;101041.69;5058799;28;45485;-81
2022/11/19 09:52:32;;;;;;;;;7.25;5.25;;;;;9.72;73.68;101043.38;5058848;27;45466;-81
2022/11/19 09:54:59;;;;;;;;;14.00;10.00;;;;;9.75;73.93;101043.31;5058755;27;45534;-81
2022/11/19 09:57:34;;;;;;;;;6.00;5.25;;;;;9.78;74.35;101029.38;5058165;28;60376;-81
2022/11/19 10:00:01;;;;;;;;;9.00;9.00;;;;;9.88;73.58;101039.56;5058485;28;45188;-81
2022/11/19 10:02:26;;;;;;;;;11.50;8.00;;;;;9.99;74.20;101044.53;5076280;27;45431;-81
2022/11/19 10:04:52;;;;;;;;;6.75;6.50;;;;;10.16;73.74;101036.38;5057754;28;67677;-81
2022/11/19 10:07:31;;;;;;;;;7.00;6.25;;;;;10.37;73.79;101042.84;5057217;28;73249;-81
2022/11/19 10:09:59;;;;;;;;;14.00;6.75;;;;;10.62;73.45;101042.25;5076009;28;45725;-81
2022/11/19 10:12:55;;;;;;;;;17.00;9.50;;;;;10.84;72.16;101038.22;5076165;27;45375;-81
2022/11/19 10:15:29;;;;;;;;;12.25;7.25;;;;;10.95;72.12;101042.31;5048482;28;45361;-81
2022/11/19 10:18:18;;;;;;;;;7.75;6.25;;;;;11.11;71.24;101041.03;5058265;28;47152;-82
2022/11/19 10:20:50;;;;;;;;;9.00;5.25;;;;;11.30;71.54;101038.78;4957924;28;45758;-81
2022/11/19 10:23:18;;;;;;;;;7.00;7.00;;;;;11.46;70.47;101028.81;4974493;28;45379;-81
2022/11/19 10:25:49;;;;;;;;;15.00;9.00;;;;;11.56;70.47;101030.25;4958218;28;45579;-81
2022/11/19 10:28:20;;;;;;;;;8.75;5.00;;;;;11.61;69.70;101035.34;4954039;28;46267;-81
2022/11/19 10:30:49;;;;;;;;;10.00;5.00;;;;;11.58;69.49;101032.81;4938262;28;45406;-81
2022/11/19 10:33:31;;;;;;;;;10.75;8.00;;;;;11.61;69.54;101030.97;4954931;28;45440;-81
2022/11/19 10:36:02;;;;;;;;;11.75;10.50;;;;;11.63;69.65;101034.38;4954636;28;45546;-81
2022/11/19 10:38:50;;;;;;;;;11.00;8.00;;;;;11.71;69.62;101031.56;4946110;28;46255;-81
2022/11/19 10:41:25;;;;;;;;;8.00;7.75;;;;;11.93;69.25;101033.59;4965732;28;45819;-81
2022/11/19 10:43:57;;;;;;;;;11.00;10.00;;;;;12.11;68.64;101027.81;4958123;28;45479;-82
2022/11/19 10:46:24;;;;;;;;;12.00;7.50;;;;;12.24;68.33;101022.19;4960445;28;45608;-81
2022/11/19 10:49:00;;;;;;;;;7.75;7.25;;;;;12.47;68.65;101024.09;4938429;28;47530;-81
2022/11/19 10:51:29;;;;;;;;;9.50;7.00;;;;;12.88;68.02;101012.25;4954308;28;45395;-81
2022/11/19 10:53:55;;;;;;;;;13.50;8.25;;;;;13.29;66.88;101020.41;4938550;28;45432;-81
2022/11/19 10:56:23;;;;;;;;;13.75;8.75;;;;;13.56;65.69;101020.38;4954346;28;45348;-81
2022/11/19 10:58:55;;;;;;;;;11.75;7.00;;;;;13.79;65.79;101022.13;5029614;28;45668;-81
2022/11/19 11:01:35;;;;;;;;;9.00;7.25;;;;;13.84;64.49;101025.41;5037308;28;45764;-81
2022/11/19 11:04:14;;;;;;;;;11.50;8.00;;;;;13.82;64.45;101023.75;5074171;28;45532;-81
2022/11/19 11:06:51;;;;;;;;;7.50;7.50;;;;;13.71;64.19;101019.78;5057734;28;45320;-81
2022/11/19 11:09:39;;;;;;;;;6.00;6.00;;;;;13.55;64.09;101022.09;5075810;28;46162;-81
2022/11/19 11:15:26;;;;;;;;;8.00;7.25;;;;;13.43;64.54;101017.34;5060028;28;45367;-81
2022/11/19 11:18:03;;;;;;;;;8.25;6.75;;;;;13.47;64.51;101010.25;5055991;28;68255;-81
2022/11/19 11:20:29;;;;;;;;;12.25;9.25;;;;;14.60;66.23;101018.09;5077581;28;46540;-81
2022/11/19 11:23:11;;;;;;;;;9.00;9.00;;;;;16.72;61.75;101012.00;5060838;28;45811;-81
2022/11/19 11:25:38;;;;;;;;;8.75;6.75;;;;;18.46;58.25;101011.47;5061151;28;45411;-81
2022/11/19 11:28:03;;;;;;;;;12.00;9.75;;;;;19.87;54.82;101010.03;5060652;28;45343;-81
2022/11/19 11:30:28;;;;;;;;;9.50;9.50;;;;;20.86;52.54;101011.53;5078815;28;46731;-82
2022/11/19 11:32:54;;;;;;;;;7.25;7.00;;;;;21.78;49.61;101020.19;5078096;28;67555;-81
2022/11/19 11:35:37;;;;;;;;;11.25;6.50;;;;;22.78;49.68;101013.69;5060078;28;65519;-81
2022/11/19 11:38:04;;;;;;;;;10.00;7.25;;;;;23.94;46.42;101008.22;5060370;28;45486;-81
2022/11/19 11:40:30;;;;;;;;;8.75;7.75;;;;;25.16;44.41;101015.88;5077197;27;46437;-82
2022/11/19 11:42:56;;;;;;;;;8.00;7.00;;;;;24.35;41.10;101019.94;5059542;28;68109;-81
2022/11/19 11:45:33;;;;;;;;;9.75;7.25;;;;;22.66;42.62;101019.94;5060885;28;45466;-81
2022/11/19 11:48:05;;;;;;;;;11.00;7.25;;;;;21.16;43.36;101029.75;5060831;27;45254;-82
2022/11/19 11:50:30;;;;;;;;;11.00;5.75;;;;;19.93;43.99;101022.00;5060637;28;46355;-82
2022/11/19 11:52:59;;;;;;;;;12.75;6.00;;;;;18.90;46.96;101023.00;5060288;28;45339;-82